createdAt,value
2023-05-04T00:00:20.830Z,95702.00
2023-05-04T00:01:20.825Z,95708.00
2023-05-04T00:02:20.815Z,95706.00
2023-05-04T00:03:20.951Z,95704.00
2023-05-04T00:04:20.825Z,95702.00
2023-05-04T00:05:20.785Z,95704.00
2023-05-04T00:06:20.846Z,95702.00
2023-05-04T00:07:20.762Z,95702.00
2023-05-04T00:08:20.784Z,95698.00
2023-05-04T00:09:20.765Z,95700.00
2023-05-04T00:10:20.749Z,95702.00
2023-05-04T00:11:20.746Z,95702.00
2023-05-04T00:12:20.745Z,95704.00
2023-05-04T00:13:20.758Z,95702.00
2023-05-04T00:14:20.723Z,95704.00
2023-05-04T00:15:20.711Z,95704.00
2023-05-04T00:16:20.744Z,95704.00
2023-05-04T00:17:20.712Z,95702.00
2023-05-04T00:18:20.688Z,95706.00
2023-05-04T00:19:20.683Z,95704.00
2023-05-04T00:20:20.680Z,95704.00
2023-05-04T00:21:20.659Z,95706.00
2023-05-04T00:22:20.668Z,95706.00
2023-05-04T00:23:20.662Z,95704.00
2023-05-04T00:24:20.665Z,95706.00
2023-05-04T00:25:20.678Z,95706.00
2023-05-04T00:26:20.701Z,95706.00
2023-05-04T00:27:20.722Z,95704.00
2023-05-04T00:28:20.750Z,95702.00
2023-05-04T00:29:20.786Z,95704.00
2023-05-04T00:30:20.774Z,95702.00
2023-05-04T00:31:20.849Z,95700.00
2023-05-04T00:32:21.687Z,95702.00
2023-05-04T00:33:20.853Z,95702.00
2023-05-04T00:34:20.853Z,95700.00
2023-05-04T00:35:20.871Z,95700.00
2023-05-04T00:36:20.892Z,95696.00
2023-05-04T00:37:20.906Z,95696.00
2023-05-04T00:38:20.927Z,95694.00
2023-05-04T00:39:20.955Z,95698.00
2023-05-04T00:40:20.964Z,95694.00
2023-05-04T00:41:20.983Z,95694.00
2023-05-04T00:42:21.006Z,95696.00
2023-05-04T00:43:21.024Z,95694.00
2023-05-04T00:44:21.049Z,95692.00
2023-05-04T00:45:21.114Z,95692.00
2023-05-04T00:46:21.092Z,95692.00
2023-05-04T00:47:21.171Z,95692.00
2023-05-04T00:48:21.141Z,95694.00
2023-05-04T00:49:21.155Z,95696.00
2023-05-04T00:50:21.165Z,95694.00
2023-05-04T00:51:21.204Z,95692.00
2023-05-04T00:52:21.214Z,95694.00
2023-05-04T00:53:21.249Z,95692.00
2023-05-04T00:54:21.262Z,95692.00
2023-05-04T00:55:21.294Z,95692.00
2023-05-04T00:56:21.311Z,95690.00
2023-05-04T00:57:21.375Z,95694.00
2023-05-04T00:58:21.359Z,95690.00
2023-05-04T00:59:21.381Z,95688.00
2023-05-04T01:00:21.392Z,95690.00
2023-05-04T01:01:21.479Z,95690.00
2023-05-04T01:02:21.430Z,95688.00
2023-05-04T01:03:21.513Z,95690.00
2023-05-04T01:04:21.489Z,95688.00
2023-05-04T01:05:21.522Z,95688.00
2023-05-04T01:06:21.530Z,95680.00
2023-05-04T01:07:21.555Z,95688.00
2023-05-04T01:08:21.587Z,95688.00
2023-05-04T01:09:21.610Z,95680.00
2023-05-04T01:10:21.624Z,95690.00
2023-05-04T01:11:21.652Z,95688.00
2023-05-04T01:12:21.678Z,95688.00
2023-05-04T01:13:21.700Z,95680.00
2023-05-04T01:14:21.712Z,95680.00
2023-05-04T01:15:21.734Z,95678.00
2023-05-04T01:16:21.773Z,95688.00
2023-05-04T01:17:21.908Z,95678.00
2023-05-04T01:18:21.803Z,95680.00
2023-05-04T01:19:21.822Z,95688.00
2023-05-04T01:20:21.838Z,95678.00
2023-05-04T01:21:21.857Z,95680.00
2023-05-04T01:22:21.885Z,95680.00
2023-05-04T01:23:21.899Z,95680.00
2023-05-04T01:24:21.919Z,95690.00
2023-05-04T01:25:21.945Z,95688.00
2023-05-04T01:26:21.970Z,95688.00
2023-05-04T01:27:22.029Z,95688.00
2023-05-04T01:28:22.009Z,95688.00
2023-05-04T01:29:22.042Z,95688.00
2023-05-04T01:30:22.061Z,95688.00
2023-05-04T01:31:22.182Z,95688.00
2023-05-04T01:32:22.231Z,95690.00
2023-05-04T01:33:22.157Z,95688.00
2023-05-04T01:34:22.143Z,95690.00
2023-05-04T01:35:22.162Z,95692.00
2023-05-04T01:36:22.217Z,95694.00
2023-05-04T01:37:22.213Z,95692.00
2023-05-04T01:38:22.234Z,95694.00
2023-05-04T01:39:22.261Z,95694.00
2023-05-04T01:40:22.294Z,95692.00
2023-05-04T01:41:22.310Z,95694.00
2023-05-04T01:42:22.338Z,95694.00
2023-05-04T01:43:22.371Z,95696.00
2023-05-04T01:44:22.424Z,95696.00
2023-05-04T01:45:22.415Z,95698.00
2023-05-04T01:46:22.518Z,95694.00
2023-05-04T01:47:22.502Z,95692.00
2023-05-04T01:48:22.499Z,95696.00
2023-05-04T01:49:22.542Z,95694.00
2023-05-04T01:50:22.558Z,95694.00
2023-05-04T01:51:22.574Z,95696.00
2023-05-04T01:52:22.623Z,95696.00
2023-05-04T01:53:22.628Z,95696.00
2023-05-04T01:54:22.663Z,95696.00
2023-05-04T01:55:22.706Z,95698.00
2023-05-04T01:56:22.721Z,95696.00
2023-05-04T01:57:22.745Z,95696.00
2023-05-04T01:58:22.765Z,95696.00
2023-05-04T01:59:22.798Z,95698.00
2023-05-04T02:00:22.824Z,95696.00
2023-05-04T02:01:22.883Z,95696.00
2023-05-04T02:02:22.873Z,95696.00
2023-05-04T02:03:22.988Z,95698.00
2023-05-04T02:04:22.924Z,95698.00
2023-05-04T02:05:22.998Z,95696.00
2023-05-04T02:06:22.982Z,95696.00
2023-05-04T02:07:23.004Z,95700.00
2023-05-04T02:08:23.025Z,95696.00
2023-05-04T02:09:23.070Z,95696.00
2023-05-04T02:10:23.077Z,95692.00
2023-05-04T02:11:23.104Z,95696.00
2023-05-04T02:12:23.137Z,95692.00
2023-05-04T02:13:23.162Z,95690.00
2023-05-04T02:14:23.202Z,95690.00
2023-05-04T02:15:23.218Z,95680.00
2023-05-04T02:16:23.304Z,95680.00
2023-05-04T02:17:23.329Z,95688.00
2023-05-04T02:18:23.304Z,95680.00
2023-05-04T02:19:23.335Z,95680.00
2023-05-04T02:20:23.372Z,95680.00
2023-05-04T02:21:23.441Z,95680.00
2023-05-04T02:22:23.417Z,95680.00
2023-05-04T02:23:23.439Z,95680.00
2023-05-04T02:24:23.471Z,95680.00
2023-05-04T02:25:23.498Z,95680.00
2023-05-04T02:26:23.534Z,95690.00
2023-05-04T02:27:23.573Z,95690.00
2023-05-04T02:28:23.627Z,95688.00
2023-05-04T02:29:23.603Z,95688.00
2023-05-04T02:30:23.636Z,95690.00
2023-05-04T02:31:23.690Z,95690.00
2023-05-04T02:32:23.747Z,95690.00
2023-05-04T02:33:23.750Z,95692.00
2023-05-04T02:34:23.763Z,95692.00
2023-05-04T02:35:23.789Z,95696.00
2023-05-04T02:36:23.825Z,95698.00
2023-05-04T02:37:23.892Z,95698.00
2023-05-04T02:38:23.884Z,95698.00
2023-05-04T02:39:23.923Z,95700.00
2023-05-04T02:40:23.952Z,95702.00
2023-05-04T02:41:23.991Z,95702.00
2023-05-04T02:42:24.014Z,95698.00
2023-05-04T02:43:24.048Z,95700.00
2023-05-04T02:44:24.074Z,95702.00
2023-05-04T02:45:24.210Z,95704.00
2023-05-04T02:46:24.206Z,95700.00
2023-05-04T02:47:24.194Z,95702.00
2023-05-04T02:48:24.194Z,95702.00
2023-05-04T02:49:24.310Z,95704.00
2023-05-04T02:50:24.308Z,95704.00
2023-05-04T02:51:24.321Z,95702.00
2023-05-04T02:52:24.318Z,95702.00
2023-05-04T02:53:24.381Z,95702.00
2023-05-04T02:54:24.356Z,95706.00
2023-05-04T02:55:24.393Z,95706.00
2023-05-04T02:56:24.482Z,95702.00
2023-05-04T02:57:24.458Z,95708.00
2023-05-04T02:58:24.479Z,95706.00
2023-05-04T02:59:24.520Z,95706.00
2023-05-04T03:00:24.568Z,95708.00
2023-05-04T03:01:24.591Z,95706.00
2023-05-04T03:02:24.643Z,95706.00
2023-05-04T03:03:24.633Z,95706.00
2023-05-04T03:04:24.717Z,95702.00
2023-05-04T03:05:24.696Z,95706.00
2023-05-04T03:06:24.734Z,95704.00
2023-05-04T03:07:24.775Z,95704.00
2023-05-04T03:08:24.804Z,95706.00
2023-05-04T03:09:24.845Z,95704.00
2023-05-04T03:10:24.856Z,95708.00
2023-05-04T03:11:24.882Z,95710.00
2023-05-04T03:12:24.929Z,95708.00
2023-05-04T03:13:24.950Z,95704.00
2023-05-04T03:14:24.973Z,95706.00
2023-05-04T03:15:25.009Z,95708.00
2023-05-04T03:16:25.080Z,95706.00
2023-05-04T03:17:25.084Z,95706.00
2023-05-04T03:18:25.152Z,95706.00
2023-05-04T03:19:25.160Z,95710.00
2023-05-04T03:20:25.199Z,95706.00
2023-05-04T03:21:25.223Z,95708.00
2023-05-04T03:22:25.262Z,95708.00
2023-05-04T03:23:25.302Z,95710.00
2023-05-04T03:24:25.340Z,95710.00
2023-05-04T03:25:25.398Z,95706.00
2023-05-04T03:26:25.429Z,95706.00
2023-05-04T03:27:25.448Z,95710.00
2023-05-04T03:28:25.483Z,95708.00
2023-05-04T03:29:25.510Z,95708.00
2023-05-04T03:30:25.544Z,95706.00
2023-05-04T03:31:25.589Z,95706.00
2023-05-04T03:32:25.665Z,95704.00
2023-05-04T03:33:25.661Z,95704.00
2023-05-04T03:34:25.695Z,95706.00
2023-05-04T03:35:25.721Z,95704.00
2023-05-04T03:36:25.764Z,95702.00
2023-05-04T03:37:25.808Z,95704.00
2023-05-04T03:38:25.838Z,95704.00
2023-05-04T03:39:25.876Z,95702.00
2023-05-04T03:40:25.913Z,95700.00
2023-05-04T03:41:26.007Z,95702.00
2023-05-04T03:42:25.983Z,95700.00
2023-05-04T03:43:26.035Z,95700.00
2023-05-04T03:44:26.058Z,95700.00
2023-05-04T03:45:26.756Z,95700.00
2023-05-04T03:46:26.224Z,95702.00
2023-05-04T03:47:26.221Z,95706.00
2023-05-04T03:48:26.195Z,95702.00
2023-05-04T03:49:26.239Z,95704.00
2023-05-04T03:50:26.286Z,95704.00
2023-05-04T03:51:26.306Z,95706.00
2023-05-04T03:52:26.350Z,95708.00
2023-05-04T03:53:26.378Z,95708.00
2023-05-04T03:54:26.417Z,95708.00
2023-05-04T03:55:26.448Z,95711.00
2023-05-04T03:56:26.492Z,95711.00
2023-05-04T03:57:26.551Z,95711.00
2023-05-04T03:58:26.565Z,95713.00
2023-05-04T03:59:26.597Z,95713.00
2023-05-04T04:00:26.632Z,95713.00
2023-05-04T04:01:26.680Z,95711.00
2023-05-04T04:02:26.942Z,95711.00
2023-05-04T04:03:26.941Z,95713.00
2023-05-04T04:04:26.810Z,95711.00
2023-05-04T04:05:26.822Z,95711.00
2023-05-04T04:06:26.857Z,95713.00
2023-05-04T04:07:26.899Z,95710.00
2023-05-04T04:08:26.934Z,95710.00
2023-05-04T04:09:26.973Z,95710.00
2023-05-04T04:10:27.006Z,95708.00
2023-05-04T04:11:27.052Z,95710.00
2023-05-04T04:12:27.085Z,95710.00
2023-05-04T04:13:27.144Z,95710.00
2023-05-04T04:14:27.164Z,95710.00
2023-05-04T04:15:27.197Z,95711.00
2023-05-04T04:16:27.265Z,95711.00
2023-05-04T04:17:27.294Z,95713.00
2023-05-04T04:18:27.339Z,95711.00
2023-05-04T04:19:27.374Z,95711.00
2023-05-04T04:20:27.402Z,95711.00
2023-05-04T04:21:27.431Z,95713.00
2023-05-04T04:22:27.473Z,95715.00
2023-05-04T04:23:27.504Z,95713.00
2023-05-04T04:24:27.537Z,95715.00
2023-05-04T04:25:27.587Z,95719.00
2023-05-04T04:26:27.612Z,95719.00
2023-05-04T04:27:27.714Z,95719.00
2023-05-04T04:28:27.673Z,95717.00
2023-05-04T04:29:27.753Z,95719.00
2023-05-04T04:30:27.769Z,95719.00
2023-05-04T04:31:27.851Z,95719.00
2023-05-04T04:32:27.892Z,95717.00
2023-05-04T04:33:27.873Z,95717.00
2023-05-04T04:34:27.945Z,95719.00
2023-05-04T04:35:27.983Z,95721.00
2023-05-04T04:36:27.998Z,95721.00
2023-05-04T04:37:28.031Z,95719.00
2023-05-04T04:38:28.069Z,95719.00
2023-05-04T04:39:28.174Z,95719.00
2023-05-04T04:40:28.176Z,95719.00
2023-05-04T04:41:28.193Z,95717.00
2023-05-04T04:42:28.240Z,95717.00
2023-05-04T04:43:28.280Z,95717.00
2023-05-04T04:44:28.340Z,95717.00
2023-05-04T04:45:28.462Z,95719.00
2023-05-04T04:46:28.433Z,95719.00
2023-05-04T04:47:28.520Z,95721.00
2023-05-04T04:48:28.521Z,95721.00
2023-05-04T04:49:28.542Z,95721.00
2023-05-04T04:50:28.584Z,95719.00
2023-05-04T04:51:28.628Z,95721.00
2023-05-04T04:52:28.667Z,95719.00
2023-05-04T04:53:28.738Z,95723.00
2023-05-04T04:54:28.751Z,95719.00
2023-05-04T04:55:28.793Z,95721.00
2023-05-04T04:56:28.833Z,95723.00
2023-05-04T04:57:31.232Z,95721.00
2023-05-04T04:58:28.876Z,95723.00
2023-05-04T04:59:28.865Z,95723.00
2023-05-04T05:00:28.888Z,95723.00
2023-05-04T05:01:29.013Z,95723.00
2023-05-04T05:02:28.878Z,95725.00
2023-05-04T05:03:28.840Z,95723.00
2023-05-04T05:04:28.853Z,95723.00
2023-05-04T05:05:31.597Z,95723.00
2023-05-04T05:06:28.814Z,95725.00
2023-05-04T05:07:28.807Z,95723.00
2023-05-04T05:08:28.804Z,95723.00
2023-05-04T05:09:28.798Z,95723.00
2023-05-04T05:10:28.778Z,95725.00
2023-05-04T05:11:28.778Z,95723.00
2023-05-04T05:12:28.791Z,95727.00
2023-05-04T05:13:28.756Z,95727.00
2023-05-04T05:14:28.759Z,95725.00
2023-05-04T05:15:28.766Z,95723.00
2023-05-04T05:16:28.781Z,95723.00
2023-05-04T05:17:28.861Z,95723.00
2023-05-04T05:18:28.729Z,95727.00
2023-05-04T05:19:28.726Z,95725.00
2023-05-04T05:20:28.728Z,95725.00
2023-05-04T05:21:28.710Z,95723.00
2023-05-04T05:22:28.810Z,95727.00
2023-05-04T05:23:28.706Z,95727.00
2023-05-04T05:24:28.688Z,95725.00
2023-05-04T05:25:28.678Z,95723.00
2023-05-04T05:26:28.667Z,95725.00
2023-05-04T05:27:28.665Z,95725.00
2023-05-04T05:28:28.831Z,95723.00
2023-05-04T05:29:28.678Z,95725.00
2023-05-04T05:30:28.662Z,95727.00
2023-05-04T05:31:28.671Z,95721.00
2023-05-04T05:32:28.642Z,95727.00
2023-05-04T05:33:28.730Z,95729.00
2023-05-04T05:34:28.617Z,95727.00
2023-05-04T05:35:28.606Z,95727.00
2023-05-04T05:36:28.601Z,95725.00
2023-05-04T05:37:29.842Z,95725.00
2023-05-04T05:38:28.682Z,95723.00
2023-05-04T05:39:28.769Z,95725.00
2023-05-04T05:40:28.764Z,95723.00
2023-05-04T05:41:28.832Z,95723.00
2023-05-04T05:42:28.880Z,95725.00
2023-05-04T05:43:29.305Z,95727.00
2023-05-04T05:44:29.982Z,95729.00
2023-05-04T05:45:29.032Z,95727.00
2023-05-04T05:46:29.115Z,95723.00
2023-05-04T05:47:29.182Z,95723.00
2023-05-04T05:48:30.005Z,95723.00
2023-05-04T05:49:29.239Z,95719.00
2023-05-04T05:50:36.688Z,95721.00
2023-05-04T05:51:29.235Z,95721.00
2023-05-04T05:52:32.510Z,95721.00
2023-05-04T05:53:29.349Z,95723.00
2023-05-04T05:54:30.348Z,95727.00
2023-05-04T05:55:29.330Z,95727.00
2023-05-04T05:56:44.779Z,95727.00
2023-05-04T05:57:36.622Z,95723.00
2023-05-04T05:58:29.183Z,95721.00
2023-05-04T05:59:29.153Z,95725.00
2023-05-04T06:00:29.308Z,95719.00
2023-05-04T06:01:29.155Z,95721.00
2023-05-04T06:02:45.114Z,95719.00
2023-05-04T06:03:36.694Z,95717.00
2023-05-04T06:04:29.402Z,95717.00
2023-05-04T06:05:29.142Z,95715.00
2023-05-04T06:07:36.515Z,95715.00
2023-05-04T06:08:29.424Z,95711.00
2023-05-04T06:09:29.094Z,95711.00
2023-05-04T06:10:29.133Z,95713.00
2023-05-04T06:11:29.075Z,95711.00
2023-05-04T06:12:29.328Z,95711.00
2023-05-04T06:13:29.246Z,95708.00
2023-05-04T06:14:30.448Z,95708.00
2023-05-04T06:15:29.049Z,95708.00
2023-05-04T06:16:29.066Z,95704.00
2023-05-04T06:17:29.178Z,95704.00
2023-05-04T06:18:29.119Z,95706.00
2023-05-04T06:19:32.385Z,95706.00
2023-05-04T06:20:29.125Z,95704.00
2023-05-04T06:21:29.084Z,95704.00
2023-05-04T06:22:29.319Z,95704.00
2023-05-04T06:23:29.078Z,95698.00
2023-05-04T06:24:29.069Z,95698.00
2023-05-04T06:25:29.068Z,95702.00
2023-05-04T06:26:29.047Z,95696.00
2023-05-04T06:27:29.037Z,95696.00
2023-05-04T06:28:29.042Z,95696.00
2023-05-04T06:29:29.027Z,95696.00
2023-05-04T06:30:29.092Z,95696.00
2023-05-04T06:31:29.015Z,95694.00
2023-05-04T06:32:32.549Z,95694.00
2023-05-04T06:33:32.185Z,95692.00
2023-05-04T06:34:28.985Z,95692.00
2023-05-04T06:35:32.304Z,95690.00
2023-05-04T06:36:28.977Z,95692.00
2023-05-04T06:37:29.326Z,95690.00
2023-05-04T06:38:32.328Z,95692.00
2023-05-04T06:39:28.960Z,95692.00
2023-05-04T06:40:28.977Z,95688.00
2023-05-04T06:41:29.318Z,95688.00
2023-05-04T06:42:28.926Z,95688.00
2023-05-04T06:43:28.957Z,95688.00
2023-05-04T06:44:28.933Z,95688.00
2023-05-04T06:45:28.934Z,95688.00
2023-05-04T06:46:29.322Z,95688.00
2023-05-04T06:47:28.920Z,95688.00
2023-05-04T06:48:32.151Z,95690.00
2023-05-04T06:49:28.888Z,95688.00
2023-05-04T06:50:28.880Z,95688.00
2023-05-04T06:51:32.643Z,95680.00
2023-05-04T06:52:44.492Z,95690.00
2023-05-04T06:53:28.983Z,95688.00
2023-05-04T06:54:28.931Z,95680.00
2023-05-04T06:55:28.843Z,95680.00
2023-05-04T06:56:28.837Z,95678.00
2023-05-04T06:57:29.310Z,95680.00
2023-05-04T06:58:28.821Z,95676.00
2023-05-04T06:59:28.828Z,95674.00
2023-05-04T07:00:28.818Z,95674.00
2023-05-04T07:01:28.848Z,95672.00
2023-05-04T07:02:28.864Z,95674.00
2023-05-04T07:03:28.799Z,95670.00
2023-05-04T07:04:28.794Z,95670.00
2023-05-04T07:05:28.795Z,95668.00
2023-05-04T07:06:28.796Z,95666.00
2023-05-04T07:07:28.801Z,95668.00
2023-05-04T07:08:28.758Z,95666.00
2023-05-04T07:09:28.755Z,95663.00
2023-05-04T07:10:28.741Z,95668.00
2023-05-04T07:11:28.783Z,95666.00
2023-05-04T07:12:28.728Z,95666.00
2023-05-04T07:13:29.333Z,95665.00
2023-05-04T07:14:28.703Z,95665.00
2023-05-04T07:15:28.703Z,95665.00
2023-05-04T07:16:28.724Z,95665.00
2023-05-04T07:17:28.726Z,95663.00
2023-05-04T07:18:28.867Z,95661.00
2023-05-04T07:19:28.667Z,95661.00
2023-05-04T07:20:28.674Z,95659.00
2023-05-04T07:21:29.441Z,95661.00
2023-05-04T07:22:28.646Z,95657.00
2023-05-04T07:23:28.861Z,95657.00
2023-05-04T07:24:28.694Z,95657.00
2023-05-04T07:25:28.760Z,95659.00
2023-05-04T07:26:28.847Z,95659.00
2023-05-04T07:27:28.845Z,95657.00
2023-05-04T07:28:28.877Z,95659.00
2023-05-04T07:29:29.566Z,95655.00
2023-05-04T07:30:29.932Z,95653.00
2023-05-04T07:31:30.489Z,95653.00
2023-05-04T07:33:29.911Z,95649.00
2023-05-04T07:34:41.761Z,95651.00
2023-05-04T07:35:28.903Z,95647.00
2023-05-04T07:36:29.361Z,95647.00
2023-05-04T07:37:28.927Z,95645.00
2023-05-04T07:38:29.363Z,95641.00
2023-05-04T07:39:29.017Z,95643.00
2023-05-04T07:40:28.879Z,95637.00
2023-05-04T07:41:28.895Z,95637.00
2023-05-04T07:42:29.585Z,95635.00
2023-05-04T07:43:29.371Z,95633.00
2023-05-04T07:44:28.869Z,95633.00
2023-05-04T07:45:28.852Z,95633.00
2023-05-04T07:46:30.179Z,95631.00
2023-05-04T07:47:28.944Z,95627.00
2023-05-04T07:48:28.826Z,95623.00
2023-05-04T07:49:29.864Z,95623.00
2023-05-04T07:50:28.799Z,95621.00
2023-05-04T07:51:28.790Z,95623.00
2023-05-04T07:52:28.781Z,95619.00
2023-05-04T07:53:29.845Z,95618.00
2023-05-04T07:54:28.770Z,95618.00
2023-05-04T07:55:28.833Z,95614.00
2023-05-04T07:56:28.789Z,95616.00
2023-05-04T07:57:28.741Z,95616.00
2023-05-04T07:58:28.844Z,95612.00
2023-05-04T07:59:28.758Z,95612.00
2023-05-04T08:00:28.776Z,95608.00
2023-05-04T08:01:28.823Z,95606.00
2023-05-04T08:02:28.993Z,95604.00
2023-05-04T08:03:29.396Z,95604.00
2023-05-04T08:04:28.970Z,95602.00
2023-05-04T08:05:29.425Z,95598.00
2023-05-04T08:06:29.108Z,95600.00
2023-05-04T08:07:29.988Z,95598.00
2023-05-04T08:08:29.214Z,95594.00
2023-05-04T08:09:29.273Z,95594.00
2023-05-04T08:10:30.345Z,95598.00
2023-05-04T08:11:29.424Z,95594.00
2023-05-04T08:12:29.463Z,95594.00
2023-05-04T08:13:29.525Z,95598.00
2023-05-04T08:14:29.597Z,95594.00
2023-05-04T08:15:29.640Z,95594.00
2023-05-04T08:16:29.693Z,95592.00
2023-05-04T08:17:29.826Z,95592.00
2023-05-04T08:18:29.798Z,95592.00
2023-05-04T08:19:30.847Z,95588.00
2023-05-04T08:20:29.916Z,95588.00
2023-05-04T08:21:30.925Z,95588.00
2023-05-04T08:22:30.423Z,95590.00
2023-05-04T08:23:30.019Z,95588.00
2023-05-04T08:24:30.071Z,95588.00
2023-05-04T08:25:30.123Z,95584.00
2023-05-04T08:26:30.126Z,95588.00
2023-05-04T08:27:30.527Z,95584.00
2023-05-04T08:28:30.241Z,95584.00
2023-05-04T08:29:30.287Z,95582.00
2023-05-04T08:30:30.380Z,95582.00
2023-05-04T08:31:30.390Z,95584.00
2023-05-04T08:32:33.187Z,95578.00
2023-05-04T08:33:30.393Z,95582.00
2023-05-04T08:34:33.639Z,95580.00
2023-05-04T08:35:30.402Z,95578.00
2023-05-04T08:36:30.396Z,95580.00
2023-05-04T08:37:30.501Z,95578.00
2023-05-04T08:38:30.377Z,95574.00
2023-05-04T08:39:30.398Z,95576.00
2023-05-04T08:40:33.570Z,95574.00
2023-05-04T08:41:30.387Z,95574.00
2023-05-04T08:42:30.350Z,95572.00
2023-05-04T08:43:30.416Z,95571.00
2023-05-04T08:44:31.367Z,95572.00
2023-05-04T08:45:30.742Z,95571.00
2023-05-04T08:46:30.314Z,95569.00
2023-05-04T08:47:30.338Z,95571.00
2023-05-04T08:48:30.303Z,95569.00
2023-05-04T08:49:30.389Z,95571.00
2023-05-04T08:50:30.298Z,95571.00
2023-05-04T08:51:30.274Z,95569.00
2023-05-04T08:52:30.280Z,95567.00
2023-05-04T08:53:30.376Z,95565.00
2023-05-04T08:54:30.310Z,95563.00
2023-05-04T08:55:30.336Z,95565.00
2023-05-04T08:56:30.375Z,95567.00
2023-05-04T08:57:30.427Z,95567.00
2023-05-04T08:58:30.880Z,95565.00
2023-05-04T08:59:30.527Z,95567.00
2023-05-04T09:00:30.541Z,95567.00
2023-05-04T09:01:30.646Z,95559.00
2023-05-04T09:02:30.642Z,95557.00
2023-05-04T09:03:30.732Z,95555.00
2023-05-04T09:04:30.688Z,95561.00
2023-05-04T09:05:30.876Z,95559.00
2023-05-04T09:06:30.762Z,95555.00
2023-05-04T09:07:30.790Z,95557.00
2023-05-04T09:08:30.825Z,95557.00
2023-05-04T09:09:30.854Z,95555.00
2023-05-04T09:10:30.899Z,95553.00
2023-05-04T09:11:30.932Z,95553.00
2023-05-04T09:12:31.004Z,95553.00
2023-05-04T09:13:31.014Z,95553.00
2023-05-04T09:14:32.068Z,95553.00
2023-05-04T09:15:31.075Z,95551.00
2023-05-04T09:16:31.120Z,95551.00
2023-05-04T09:17:31.211Z,95549.00
2023-05-04T09:18:31.454Z,95547.00
2023-05-04T09:19:31.225Z,95547.00
2023-05-04T09:20:33.267Z,95545.00
2023-05-04T09:21:31.280Z,95543.00
2023-05-04T09:22:31.240Z,95543.00
2023-05-04T09:23:31.435Z,95541.00
2023-05-04T09:24:31.247Z,95541.00
2023-05-04T09:25:31.238Z,95541.00
2023-05-04T09:26:31.236Z,95539.00
2023-05-04T09:27:31.208Z,95537.00
2023-05-04T09:28:31.439Z,95537.00
2023-05-04T09:29:31.175Z,95535.00
2023-05-04T09:30:31.208Z,95535.00
2023-05-04T09:31:31.180Z,95535.00
2023-05-04T09:32:31.220Z,95531.00
2023-05-04T09:33:31.438Z,95533.00
2023-05-04T09:34:31.142Z,95531.00
2023-05-04T09:35:33.960Z,95531.00
2023-05-04T09:36:46.737Z,95529.00
2023-05-04T09:37:31.113Z,95529.00
2023-05-04T09:38:32.410Z,95527.00
2023-05-04T09:39:31.430Z,95529.00
2023-05-04T09:40:31.107Z,95529.00
2023-05-04T09:41:31.494Z,95529.00
2023-05-04T09:42:31.092Z,95527.00
2023-05-04T09:43:31.086Z,95525.00
2023-05-04T09:44:31.418Z,95525.00
2023-05-04T09:45:31.080Z,95524.00
2023-05-04T09:46:31.197Z,95522.00
2023-05-04T09:47:31.160Z,95520.00
2023-05-04T09:48:31.144Z,95518.00
2023-05-04T09:49:31.199Z,95516.00
2023-05-04T09:50:31.177Z,95516.00
2023-05-04T09:51:31.223Z,95514.00
2023-05-04T09:52:31.229Z,95510.00
2023-05-04T09:53:31.403Z,95510.00
2023-05-04T09:54:31.298Z,95510.00
2023-05-04T09:55:31.312Z,95508.00
2023-05-04T09:56:31.358Z,95508.00
2023-05-04T09:57:31.375Z,95506.00
2023-05-04T09:58:31.431Z,95506.00
2023-05-04T09:59:31.406Z,95500.00
2023-05-04T10:00:31.418Z,95500.00
2023-05-04T10:01:32.522Z,95500.00
2023-05-04T10:02:31.735Z,95500.00
2023-05-04T10:03:31.925Z,95496.00
2023-05-04T10:04:31.928Z,95496.00
2023-05-04T10:05:31.597Z,95492.00
2023-05-04T10:06:31.536Z,95490.00
2023-05-04T10:07:31.575Z,95488.00
2023-05-04T10:08:31.567Z,95488.00
2023-05-04T10:09:32.902Z,95486.00
2023-05-04T10:10:31.602Z,95488.00
2023-05-04T10:11:31.636Z,95482.00
2023-05-04T10:12:31.642Z,95482.00
2023-05-04T10:13:31.654Z,95482.00
2023-05-04T10:14:31.907Z,95480.00
2023-05-04T10:15:31.686Z,95478.00
2023-05-04T10:16:34.963Z,95478.00
2023-05-04T10:17:31.722Z,95477.00
2023-05-04T10:18:31.930Z,95475.00
2023-05-04T10:19:31.667Z,95473.00
2023-05-04T10:20:31.666Z,95471.00
2023-05-04T10:21:31.702Z,95471.00
2023-05-04T10:22:31.909Z,95467.00
2023-05-04T10:23:31.932Z,95465.00
2023-05-04T10:24:31.638Z,95463.00
2023-05-04T10:25:31.633Z,95461.00
2023-05-04T10:26:32.411Z,95459.00
2023-05-04T10:27:31.616Z,95457.00
2023-05-04T10:28:31.942Z,95457.00
2023-05-04T10:29:31.619Z,95455.00
2023-05-04T10:30:31.605Z,95457.00
2023-05-04T10:31:31.633Z,95455.00
2023-05-04T10:32:31.641Z,95453.00
2023-05-04T10:33:32.011Z,95453.00
2023-05-04T10:34:31.626Z,95451.00
2023-05-04T10:35:31.564Z,95447.00
2023-05-04T10:36:31.551Z,95443.00
2023-05-04T10:37:31.913Z,95441.00
2023-05-04T10:38:31.938Z,95439.00
2023-05-04T10:39:31.921Z,95437.00
2023-05-04T10:40:31.535Z,95437.00
2023-05-04T10:41:31.517Z,95435.00
2023-05-04T10:42:31.911Z,95424.00
2023-05-04T10:43:31.500Z,95422.00
2023-05-04T10:44:31.924Z,95424.00
2023-05-04T10:45:31.510Z,95420.00
2023-05-04T10:46:31.489Z,95422.00
2023-05-04T10:47:31.519Z,95420.00
2023-05-04T10:48:31.477Z,95414.00
2023-05-04T10:49:31.941Z,95416.00
2023-05-04T10:50:31.668Z,95414.00
2023-05-04T10:51:42.302Z,95410.00
2023-05-04T10:52:31.455Z,95408.00
2023-05-04T10:53:31.445Z,95404.00
2023-05-04T10:54:31.909Z,95404.00
2023-05-04T10:55:32.408Z,95400.00
2023-05-04T10:56:31.413Z,95402.00
2023-05-04T10:57:31.414Z,95402.00
2023-05-04T10:58:31.395Z,95398.00
2023-05-04T10:59:31.412Z,95398.00
2023-05-04T11:00:31.385Z,95394.00
2023-05-04T11:01:31.429Z,95394.00
2023-05-04T11:02:33.489Z,95390.00
2023-05-04T11:03:31.494Z,95386.00
2023-05-04T11:04:31.363Z,95386.00
2023-05-04T11:05:31.350Z,95388.00
2023-05-04T11:06:31.364Z,95383.00
2023-05-04T11:07:31.484Z,95386.00
2023-05-04T11:08:31.331Z,95383.00
2023-05-04T11:09:31.420Z,95380.00
2023-05-04T11:10:31.310Z,95378.00
2023-05-04T11:11:31.309Z,95380.00
2023-05-04T11:12:31.324Z,95377.00
2023-05-04T11:13:31.297Z,95378.00
2023-05-04T11:14:31.418Z,95375.00
2023-05-04T11:15:31.279Z,95375.00
2023-05-04T11:16:31.324Z,95371.00
2023-05-04T11:17:31.296Z,95373.00
2023-05-04T11:18:31.258Z,95373.00
2023-05-04T11:19:31.425Z,95373.00
2023-05-04T11:20:31.238Z,95369.00
2023-05-04T11:21:31.235Z,95369.00
2023-05-04T11:22:31.265Z,95365.00
2023-05-04T11:23:31.217Z,95365.00
2023-05-04T11:24:31.439Z,95363.00
2023-05-04T11:25:31.215Z,95363.00
2023-05-04T11:26:31.203Z,95365.00
2023-05-04T11:27:31.186Z,95361.00
2023-05-04T11:28:31.209Z,95359.00
2023-05-04T11:29:31.550Z,95361.00
2023-05-04T11:30:31.354Z,95359.00
2023-05-04T11:31:31.206Z,95357.00
2023-05-04T11:32:31.190Z,95353.00
2023-05-04T11:33:31.143Z,95353.00
2023-05-04T11:34:31.454Z,95355.00
2023-05-04T11:35:31.125Z,95351.00
2023-05-04T11:36:31.136Z,95353.00
2023-05-04T11:37:31.118Z,95353.00
2023-05-04T11:38:31.139Z,95351.00
2023-05-04T11:39:31.428Z,95349.00
2023-05-04T11:40:31.130Z,95349.00
2023-05-04T11:41:31.086Z,95343.00
2023-05-04T11:42:31.086Z,95341.00
2023-05-04T11:43:31.127Z,95341.00
2023-05-04T11:44:31.169Z,95341.00
2023-05-04T11:45:31.181Z,95334.00
2023-05-04T11:46:31.265Z,95336.00